Weather History for Houghton, MI

Change the Weather History Date:

Saturday, January 19, 2013

  Actual Average Record
Temperature  
Mean Temperature 17 °F -  
Max Temperature 28 °F 20 °F 39 °F (1968)
Min Temperature 6 °F 8 °F -19 °F (1963)
Degree Days  
Heating Degree Days 48    
Moisture  
Dew Point 17 °F    
Average Humidity 90    
Maximum Humidity 100    
Minimum Humidity 84    
Precipitation  
Precipitation 0.12 in - - ()
Sea Level Pressure  
Sea Level Pressure 29.59 in    
Wind  
Wind Speed 10 mph (West)    
Max Wind Speed 36 mph    
Max Gust Speed 44 mph    
Visibility 3 miles    
Events Fog , Snow    
Averages and records for this station are not official NWS values.
T = Trace of Precipitation, MM = Missing Value Source: NWS Daily Summary

Daily Weather History Graph

Daily Weather History Graph

Search for Another Location

Airport:

Trip Planner

Search our weather history database for the weather conditions in past years. The results will help you decide how hot, cold, wet, or windy it might be!

Date:

Astronomy

Jan. 19, 2013 Rise Set
Actual Time 8:32 AM EST 5:37 PM EST
Civil Twilight 7:58 AM EST 6:11 PM EST
Nautical Twilight 7:21 AM EST 6:48 PM EST
Astronomical Twilight 6:44 AM EST 7:25 PM EST
Moon 12:08 PM EST (1/19) 2:00 AM EST (1/19)
Length of Visible Light 10h 12m
Length of Day
9h 04m
First Quarter, 57% of the Moon is Illuminated
Jan 19
First Quarter
Jan 26
Full
Feb 3
Last Quarter
Feb 10
New
Feb 17
First Quarter

Hourly Weather History & Observations

Time (EST) Temp. Windchill Dew Point Humidity Pressure Visibility Wind Dir Wind Speed Gust Speed Precip Events Conditions
12:53 AM 12.2 °F 4.3 °F 10.4 °F 92% 29.71 in 10.0 mi NW 4.6 mph - N/A   Overcast
1:07 AM 14.0 °F 8.2 °F 10.4 °F 86% 29.71 in 10.0 mi NW 3.5 mph - N/A   Overcast
1:36 AM 15.8 °F 8.6 °F 12.2 °F 86% 29.70 in 9.0 mi NW 4.6 mph - N/A   Overcast
1:53 AM 15.1 °F 7.7 °F 12.9 °F 91% 29.77 in 9.0 mi NW 4.6 mph - 0.00 in   Overcast
2:50 AM 21.2 °F 13.6 °F 17.6 °F 86% 29.71 in 10.0 mi North 5.8 mph - N/A   Overcast
2:53 AM 21.0 °F 13.4 °F 18.0 °F 88% 29.78 in 10.0 mi North 5.8 mph - N/A   Overcast
3:53 AM 19.0 °F 11.1 °F 16.0 °F 88% 29.79 in 10.0 mi WNW 5.8 mph - N/A   Overcast
4:53 AM 21.9 °F 11.7 °F 19.9 °F 92% 29.78 in 10.0 mi NE 9.2 mph - N/A   Overcast
5:53 AM 21.9 °F 14.5 °F 19.9 °F 92% 29.77 in 8.0 mi ENE 5.8 mph - N/A   Overcast
6:22 AM 21.2 °F 13.6 °F 19.4 °F 93% 29.71 in 8.0 mi ENE 5.8 mph - N/A   Overcast
6:53 AM 19.9 °F 14.9 °F 19.0 °F 96% 29.76 in 4.0 mi SE 3.5 mph - 0.00 in Snow Light Snow
7:16 AM 19.4 °F 12.8 °F 17.6 °F 93% 29.70 in 5.0 mi South 4.6 mph - 0.00 in Snow Light Snow
7:53 AM 19.0 °F - 18.0 °F 96% 29.75 in 10.0 mi Calm Calm - 0.00 in   Overcast
8:53 AM 18.0 °F 9.8 °F 16.0 °F 92% 29.71 in 7.0 mi ESE 5.8 mph - N/A   Overcast
9:08 AM 17.6 °F 9.3 °F 15.8 °F 93% 29.63 in 1.5 mi ESE 5.8 mph - 0.00 in Snow Light Snow
9:13 AM 17.6 °F 10.7 °F 15.8 °F 93% 29.63 in 0.8 mi SE 4.6 mph - 0.01 in Snow Light Snow
9:21 AM 17.6 °F 9.3 °F 15.8 °F 93% 29.62 in 0.5 mi SSE 5.8 mph - 0.01 in Fog , Snow Snow
9:53 AM 18.0 °F 8.7 °F 17.1 °F 96% 29.67 in 0.5 mi SSE 6.9 mph - 0.02 in Fog , Snow Snow
10:11 AM 17.6 °F 6.4 °F 15.8 °F 93% 29.64 in 0.2 mi South 9.2 mph - 0.01 in Fog , Snow Snow
10:24 AM 17.6 °F 5.7 °F 15.8 °F 93% 29.63 in 0.2 mi South 10.4 mph - 0.02 in Fog , Snow Heavy Snow
10:37 AM 17.6 °F 7.3 °F 17.6 °F 100% 29.62 in 0.2 mi South 8.1 mph - 0.04 in Fog , Snow Heavy Snow
10:44 AM 19.4 °F 10.4 °F 17.6 °F 93% 29.62 in 0.2 mi South 6.9 mph - 0.04 in Fog , Snow Snow
10:51 AM 19.4 °F 9.5 °F 17.6 °F 93% 29.62 in 0.5 mi South 8.1 mph - 0.04 in Fog , Snow Snow
10:53 AM 19.0 °F 9.0 °F 17.1 °F 92% 29.68 in 0.5 mi South 8.1 mph - 0.05 in Fog , Snow Snow
11:00 AM 19.4 °F 8.6 °F 17.6 °F 93% 29.61 in 0.5 mi South 9.2 mph - 0.00 in Fog , Snow Light Snow
11:09 AM 19.4 °F 9.5 °F 17.6 °F 93% 29.61 in 1.0 mi South 8.1 mph - 0.00 in Snow Light Snow
11:20 AM 19.4 °F 11.5 °F 17.6 °F 93% 29.60 in 0.8 mi South 5.8 mph - 0.00 in Snow Light Snow
11:53 AM 19.9 °F 11.1 °F 18.0 °F 92% 29.64 in 1.5 mi SSE 6.9 mph - 0.00 in Snow Light Snow
12:01 PM 19.4 °F 10.4 °F 17.6 °F 93% 29.57 in 3.0 mi SSE 6.9 mph - 0.00 in Snow Light Snow
12:53 PM 21.0 °F - 19.0 °F 92% 29.57 in 10.0 mi Calm Calm - 0.00 in   Overcast
1:53 PM 21.9 °F 14.5 °F 19.0 °F 89% 29.51 in 6.0 mi South 5.8 mph - N/A   Overcast
2:12 PM 21.2 °F 12.6 °F 19.4 °F 93% 29.43 in 2.0 mi SSE 6.9 mph - 0.00 in Snow Light Snow
2:32 PM 21.2 °F 16.4 °F 19.4 °F 93% 29.43 in 4.0 mi SSW 3.5 mph - 0.00 in Snow Light Snow
2:53 PM 23.0 °F 18.4 °F 19.9 °F 88% 29.47 in 9.0 mi South 3.5 mph - 0.00 in   Overcast
3:36 PM 24.8 °F 19.1 °F 21.2 °F 86% 29.40 in 2.5 mi SW 4.6 mph - 0.00 in Snow Light Snow
3:44 PM 24.8 °F 16.9 °F 21.2 °F 86% 29.40 in 1.2 mi West 6.9 mph - 0.01 in Snow Light Snow
3:53 PM 28.4 °F 15.4 °F 24.8 °F 86% 29.40 in 0.5 mi West 19.6 mph 25.3 mph N/A Fog , Snow Snow
4:06 PM 28.4 °F 15.4 °F 26.6 °F 93% 29.40 in 0.2 mi West 19.6 mph 28.8 mph 0.00 in Fog , Snow Snow
4:16 PM 28.4 °F 15.8 °F 26.6 °F 93% 29.40 in 0.5 mi West 18.4 mph - 0.00 in Fog , Snow Snow
4:53 PM 28.9 °F 14.3 °F 26.1 °F 89% 29.43 in 0.8 mi West 26.5 mph 36.8 mph 0.01 in Snow Light Snow
5:09 PM 28.4 °F 14.1 °F 26.6 °F 93% 29.39 in 1.0 mi West 24.2 mph 38.0 mph 0.00 in Snow Light Snow
5:14 PM 28.4 °F 13.0 °F 26.6 °F 93% 29.39 in 0.8 mi West 28.8 mph 35.7 mph 0.00 in Snow Light Snow
5:21 PM 28.4 °F 15.1 °F 24.8 °F 86% 29.40 in 1.0 mi WNW 20.7 mph 35.7 mph 0.00 in Snow Light Snow
5:27 PM 28.4 °F 13.8 °F 26.6 °F 93% 29.40 in 2.0 mi WNW 25.3 mph 32.2 mph 0.00 in Snow Light Snow
5:39 PM 28.4 °F 14.1 °F 24.8 °F 86% 29.41 in 1.8 mi WNW 24.2 mph - 0.00 in Snow Light Snow
5:48 PM 26.6 °F 12.4 °F 24.8 °F 93% 29.42 in 0.8 mi WNW 21.9 mph 31.1 mph 0.01 in Snow Light Snow
5:53 PM 27.0 °F 11.9 °F 24.1 °F 89% 29.47 in 0.8 mi WNW 25.3 mph 31.1 mph 0.01 in Snow Light Snow
6:04 PM 24.8 °F 7.3 °F 21.2 °F 86% 29.43 in 1.0 mi NW 32.2 mph 43.7 mph 0.00 in Snow Light Snow
6:53 PM 19.9 °F 2.2 °F 17.1 °F 89% 29.52 in 1.0 mi NNW 26.5 mph 39.1 mph 0.00 in Snow Light Snow
7:28 PM 17.6 °F -1.6 °F 14.0 °F 86% 29.50 in 0.8 mi NNW 28.8 mph 41.4 mph 0.00 in Snow Light Snow
7:42 PM 15.8 °F -5.8 °F 12.2 °F 86% 29.50 in 0.5 mi NW 35.7 mph 42.6 mph 0.00 in Fog , Snow Snow
7:53 PM 15.1 °F -6.2 °F 12.0 °F 88% 29.57 in 0.5 mi NW 33.4 mph 41.4 mph 0.00 in Fog , Snow Snow
8:38 PM 12.2 °F -5.3 °F 10.4 °F 92% 29.57 in 0.5 mi NNW 18.4 mph 31.1 mph 0.02 in Fog , Snow Snow
8:53 PM 12.9 °F -7.3 °F 9.0 °F 84% 29.65 in 0.8 mi NW 26.5 mph 35.7 mph 0.02 in Snow Light Snow
9:53 PM 10.0 °F -7.6 °F 6.1 °F 84% 29.70 in 0.5 mi NNW 17.3 mph 27.6 mph 0.00 in Fog , Snow Snow
10:04 PM 10.4 °F -7.7 °F 6.8 °F 85% 29.64 in 0.5 mi NW 18.4 mph - 0.00 in Fog , Snow Snow
10:12 PM 10.4 °F -8.2 °F 6.8 °F 85% 29.65 in 0.5 mi NNW 19.6 mph 28.8 mph 0.00 in Fog , Snow Snow
10:22 PM 8.6 °F -10.0 °F 5.0 °F 85% 29.66 in 0.2 mi NNW 18.4 mph 29.9 mph 0.00 in Fog , Snow Heavy Snow
10:51 PM 6.8 °F -13.8 °F 3.2 °F 85% 29.69 in 0.5 mi NNW 21.9 mph 28.8 mph 0.01 in Fog Light Freezing Fog
10:53 PM 7.0 °F -12.1 °F 3.0 °F 84% 29.76 in 0.5 mi NNW 18.4 mph 28.8 mph 0.01 in Fog Light Freezing Fog
11:47 PM 6.8 °F -14.7 °F 3.2 °F 85% 29.72 in 0.2 mi NNW 24.2 mph 32.2 mph N/A Fog Light Freezing Fog
11:53 PM 7.0 °F -14.0 °F 3.9 °F 87% 29.79 in 0.2 mi NNW 23.0 mph 32.2 mph N/A Fog Light Freezing Fog